sensor_id;sensor_type;location;lat;lon;timestamp;noise_LAeq;noise_LA_min;noise_LA_max;noise_LA01;noise_LA95
4048;Laerm;2038;51.728;6.674;2023-07-28T00:00:18;41.16;37.70;46.80;;
4048;Laerm;2038;51.728;6.674;2023-07-28T00:02:44;42.04;38.05;53.69;;
4048;Laerm;2038;51.728;6.674;2023-07-28T00:05:10;40.96;38.05;43.49;;
4048;Laerm;2038;51.728;6.674;2023-07-28T00:07:36;42.38;37.70;54.38;;
4048;Laerm;2038;51.728;6.674;2023-07-28T00:10:03;40.64;36.91;44.87;;
4048;Laerm;2038;51.728;6.674;2023-07-28T00:12:30;41.55;38.05;50.51;;
4048;Laerm;2038;51.728;6.674;2023-07-28T00:14:56;40.57;37.12;47.21;;
4048;Laerm;2038;51.728;6.674;2023-07-28T00:17:22;41.46;38.37;47.59;;
4048;Laerm;2038;51.728;6.674;2023-07-28T00:19:48;41.05;37.52;48.15;;
4048;Laerm;2038;51.728;6.674;2023-07-28T00:22:15;41.08;38.05;46.30;;
4048;Laerm;2038;51.728;6.674;2023-07-28T00:24:41;40.60;38.05;46.97;;
4048;Laerm;2038;51.728;6.674;2023-07-28T00:27:07;41.01;37.88;48.48;;
4048;Laerm;2038;51.728;6.674;2023-07-28T00:29:33;40.68;37.70;42.98;;
4048;Laerm;2038;51.728;6.674;2023-07-28T00:31:59;42.78;38.05;57.05;;
4048;Laerm;2038;51.728;6.674;2023-07-28T00:34:26;41.55;38.37;50.31;;
4048;Laerm;2038;51.728;6.674;2023-07-28T00:36:53;41.75;38.21;49.35;;
4048;Laerm;2038;51.728;6.674;2023-07-28T00:39:19;41.31;37.12;52.18;;
4048;Laerm;2038;51.728;6.674;2023-07-28T00:41:46;40.93;37.52;46.38;;
4048;Laerm;2038;51.728;6.674;2023-07-28T00:44:12;40.77;37.52;44.23;;
4048;Laerm;2038;51.728;6.674;2023-07-28T00:46:40;40.52;37.70;47.55;;
4048;Laerm;2038;51.728;6.674;2023-07-28T00:49:07;40.64;37.52;48.18;;
4048;Laerm;2038;51.728;6.674;2023-07-28T00:51:35;41.67;38.21;50.05;;
4048;Laerm;2038;51.728;6.674;2023-07-28T00:54:02;41.92;38.21;47.55;;
4048;Laerm;2038;51.728;6.674;2023-07-28T00:56:30;40.24;37.70;42.35;;
4048;Laerm;2038;51.728;6.674;2023-07-28T00:58:57;40.22;36.45;42.71;;
4048;Laerm;2038;51.728;6.674;2023-07-28T01:01:23;41.61;37.88;48.63;;
4048;Laerm;2038;51.728;6.674;2023-07-28T01:03:51;43.60;34.69;57.99;;
4048;Laerm;2038;51.728;6.674;2023-07-28T01:06:41;43.55;37.52;58.80;;
4048;Laerm;2038;51.728;6.674;2023-07-28T01:09:16;40.87;37.70;45.14;;
4048;Laerm;2038;51.728;6.674;2023-07-28T01:11:58;48.05;37.88;66.31;;
4048;Laerm;2038;51.728;6.674;2023-07-28T01:14:25;40.68;37.88;43.63;;
4048;Laerm;2038;51.728;6.674;2023-07-28T01:16:51;48.53;37.52;65.85;;
4048;Laerm;2038;51.728;6.674;2023-07-28T01:19:20;48.74;37.52;66.63;;
4048;Laerm;2038;51.728;6.674;2023-07-28T01:25:20;41.87;37.70;55.17;;
4048;Laerm;2038;51.728;6.674;2023-07-28T01:27:50;40.36;37.52;43.54;;
4048;Laerm;2038;51.728;6.674;2023-07-28T01:30:17;40.33;37.32;42.59;;
4048;Laerm;2038;51.728;6.674;2023-07-28T01:32:45;40.35;37.70;42.69;;
4048;Laerm;2038;51.728;6.674;2023-07-28T01:35:12;43.63;37.52;62.11;;
4048;Laerm;2038;51.728;6.674;2023-07-28T01:37:39;46.13;37.53;63.87;;
4048;Laerm;2038;51.728;6.674;2023-07-28T01:40:05;43.81;37.35;57.65;;
4048;Laerm;2038;51.728;6.674;2023-07-28T01:42:32;40.39;37.32;42.76;;
4048;Laerm;2038;51.728;6.674;2023-07-28T01:44:58;42.14;37.88;56.13;;
4048;Laerm;2038;51.728;6.674;2023-07-28T01:47:24;40.95;38.05;47.10;;
4048;Laerm;2038;51.728;6.674;2023-07-28T01:49:51;40.93;38.32;43.81;;
4048;Laerm;2038;51.728;6.674;2023-07-28T01:52:17;43.53;37.88;58.99;;
4048;Laerm;2038;51.728;6.674;2023-07-28T01:54:44;40.55;37.52;43.54;;
4048;Laerm;2038;51.728;6.674;2023-07-28T01:57:10;43.38;37.52;59.99;;
4048;Laerm;2038;51.728;6.674;2023-07-28T01:59:36;42.95;38.05;58.51;;
4048;Laerm;2038;51.728;6.674;2023-07-28T02:02:02;40.28;37.35;42.29;;
4048;Laerm;2038;51.728;6.674;2023-07-28T02:04:29;40.27;37.32;42.59;;
4048;Laerm;2038;51.728;6.674;2023-07-28T02:06:55;40.62;37.88;47.21;;
4048;Laerm;2038;51.728;6.674;2023-07-28T02:09:21;43.21;37.88;59.06;;
4048;Laerm;2038;51.728;6.674;2023-07-28T02:11:47;40.77;37.70;44.90;;
4048;Laerm;2038;51.728;6.674;2023-07-28T02:14:13;40.38;37.88;42.22;;
4048;Laerm;2038;51.728;6.674;2023-07-28T02:16:40;43.62;37.12;60.56;;
4048;Laerm;2038;51.728;6.674;2023-07-28T02:19:06;40.74;38.21;46.33;;
4048;Laerm;2038;51.728;6.674;2023-07-28T02:21:32;50.17;38.21;68.43;;
4048;Laerm;2038;51.728;6.674;2023-07-28T02:23:58;40.63;37.88;45.20;;
4048;Laerm;2038;51.728;6.674;2023-07-28T02:26:24;40.39;37.52;45.33;;
4048;Laerm;2038;51.728;6.674;2023-07-28T02:28:51;43.30;38.05;58.32;;
4048;Laerm;2038;51.728;6.674;2023-07-28T02:31:17;40.67;38.05;46.95;;
4048;Laerm;2038;51.728;6.674;2023-07-28T02:33:43;40.56;37.70;50.06;;
4048;Laerm;2038;51.728;6.674;2023-07-28T02:36:10;40.52;37.70;46.87;;
4048;Laerm;2038;51.728;6.674;2023-07-28T02:38:36;47.56;38.18;64.04;;
4048;Laerm;2038;51.728;6.674;2023-07-28T02:41:02;40.85;37.70;44.83;;
4048;Laerm;2038;51.728;6.674;2023-07-28T02:43:30;43.91;37.52;60.82;;
4048;Laerm;2038;51.728;6.674;2023-07-28T02:45:57;40.74;37.70;43.80;;
4048;Laerm;2038;51.728;6.674;2023-07-28T02:48:24;42.19;38.05;55.36;;
4048;Laerm;2038;51.728;6.674;2023-07-28T02:50:52;51.25;38.21;68.10;;
4048;Laerm;2038;51.728;6.674;2023-07-28T02:53:19;43.64;38.05;58.27;;
4048;Laerm;2038;51.728;6.674;2023-07-28T02:55:47;40.64;37.52;42.93;;
4048;Laerm;2038;51.728;6.674;2023-07-28T02:58:15;40.56;37.52;43.90;;
4048;Laerm;2038;51.728;6.674;2023-07-28T03:00:43;40.69;37.52;43.24;;
4048;Laerm;2038;51.728;6.674;2023-07-28T03:03:11;40.47;37.70;43.19;;
4048;Laerm;2038;51.728;6.674;2023-07-28T03:05:40;46.66;37.52;60.94;;
4048;Laerm;2038;51.728;6.674;2023-07-28T03:08:07;48.47;37.52;62.84;;
4048;Laerm;2038;51.728;6.674;2023-07-28T03:10:33;46.94;38.37;62.99;;
4048;Laerm;2038;51.728;6.674;2023-07-28T03:12:59;44.05;37.88;58.73;;
4048;Laerm;2038;51.728;6.674;2023-07-28T03:15:25;40.49;37.70;45.17;;
4048;Laerm;2038;51.728;6.674;2023-07-28T03:17:52;45.58;37.88;63.27;;
4048;Laerm;2038;51.728;6.674;2023-07-28T03:20:20;46.23;38.67;62.09;;
4048;Laerm;2038;51.728;6.674;2023-07-28T03:22:46;43.75;38.21;59.13;;
4048;Laerm;2038;51.728;6.674;2023-07-28T03:25:13;43.65;38.52;54.64;;
4048;Laerm;2038;51.728;6.674;2023-07-28T03:27:39;51.08;38.37;69.92;;
4048;Laerm;2038;51.728;6.674;2023-07-28T03:30:06;40.57;37.12;42.59;;
4048;Laerm;2038;51.728;6.674;2023-07-28T03:32:37;47.83;37.32;59.90;;
4048;Laerm;2038;51.728;6.674;2023-07-28T03:35:04;51.03;38.81;65.35;;
4048;Laerm;2038;51.728;6.674;2023-07-28T03:37:34;50.59;38.52;68.92;;
4048;Laerm;2038;51.728;6.674;2023-07-28T03:40:00;46.13;38.37;62.28;;
4048;Laerm;2038;51.728;6.674;2023-07-28T03:42:27;46.83;38.95;59.47;;
4048;Laerm;2038;51.728;6.674;2023-07-28T03:44:53;47.49;38.81;61.16;;
4048;Laerm;2038;51.728;6.674;2023-07-28T03:47:20;48.81;38.21;65.01;;
4048;Laerm;2038;51.728;6.674;2023-07-28T03:49:46;50.53;38.05;68.09;;
4048;Laerm;2038;51.728;6.674;2023-07-28T03:52:12;46.61;38.67;63.14;;
4048;Laerm;2038;51.728;6.674;2023-07-28T03:54:38;47.11;38.32;62.25;;
4048;Laerm;2038;51.728;6.674;2023-07-28T03:57:05;50.45;38.67;66.78;;
4048;Laerm;2038;51.728;6.674;2023-07-28T03:59:31;46.60;38.95;59.61;;
4048;Laerm;2038;51.728;6.674;2023-07-28T04:01:57;48.78;38.37;62.98;;
4048;Laerm;2038;51.728;6.674;2023-07-28T04:04:24;49.18;38.37;65.08;;
4048;Laerm;2038;51.728;6.674;2023-07-28T04:06:50;52.92;39.08;68.73;;
4048;Laerm;2038;51.728;6.674;2023-07-28T04:09:18;42.43;38.37;53.23;;
4048;Laerm;2038;51.728;6.674;2023-07-28T04:11:45;47.23;39.08;61.01;;
4048;Laerm;2038;51.728;6.674;2023-07-28T04:14:12;45.48;38.67;62.42;;
4048;Laerm;2038;51.728;6.674;2023-07-28T04:16:39;45.41;38.05;57.50;;
4048;Laerm;2038;51.728;6.674;2023-07-28T04:19:05;45.37;38.67;58.80;;
4048;Laerm;2038;51.728;6.674;2023-07-28T04:21:31;50.09;38.67;66.06;;
4048;Laerm;2038;51.728;6.674;2023-07-28T04:23:58;51.90;38.21;69.11;;
4048;Laerm;2038;51.728;6.674;2023-07-28T04:26:25;49.85;38.95;65.02;;
4048;Laerm;2038;51.728;6.674;2023-07-28T04:28:51;43.84;38.37;56.65;;
4048;Laerm;2038;51.728;6.674;2023-07-28T04:31:17;48.60;38.21;62.35;;
4048;Laerm;2038;51.728;6.674;2023-07-28T04:33:44;48.99;38.95;60.45;;
4048;Laerm;2038;51.728;6.674;2023-07-28T04:36:10;49.47;38.81;63.18;;
4048;Laerm;2038;51.728;6.674;2023-07-28T04:38:36;48.52;39.08;61.27;;
4048;Laerm;2038;51.728;6.674;2023-07-28T04:41:02;50.02;38.95;64.85;;
4048;Laerm;2038;51.728;6.674;2023-07-28T04:43:29;49.40;36.69;63.29;;
4048;Laerm;2038;51.728;6.674;2023-07-28T04:45:55;48.90;38.52;63.45;;
4048;Laerm;2038;51.728;6.674;2023-07-28T04:48:22;50.32;39.08;64.51;;
4048;Laerm;2038;51.728;6.674;2023-07-28T04:50:48;50.74;38.05;65.02;;
4048;Laerm;2038;51.728;6.674;2023-07-28T04:53:14;48.57;38.05;59.01;;
4048;Laerm;2038;51.728;6.674;2023-07-28T04:55:40;51.58;39.08;63.50;;
4048;Laerm;2038;51.728;6.674;2023-07-28T04:58:07;46.18;38.21;61.74;;
4048;Laerm;2038;51.728;6.674;2023-07-28T05:00:33;48.61;38.81;60.68;;
4048;Laerm;2038;51.728;6.674;2023-07-28T05:02:59;45.70;38.67;59.37;;
4048;Laerm;2038;51.728;6.674;2023-07-28T05:05:26;46.96;38.81;59.18;;
4048;Laerm;2038;51.728;6.674;2023-07-28T05:07:52;47.82;38.67;61.16;;
4048;Laerm;2038;51.728;6.674;2023-07-28T05:10:18;45.51;38.37;59.48;;
4048;Laerm;2038;51.728;6.674;2023-07-28T05:12:44;45.75;38.67;57.19;;
4048;Laerm;2038;51.728;6.674;2023-07-28T05:15:11;51.44;39.08;65.71;;
4048;Laerm;2038;51.728;6.674;2023-07-28T05:17:37;50.89;38.95;63.05;;
4048;Laerm;2038;51.728;6.674;2023-07-28T05:20:04;48.90;38.67;61.47;;
4048;Laerm;2038;51.728;6.674;2023-07-28T05:22:31;47.31;38.95;59.44;;
4048;Laerm;2038;51.728;6.674;2023-07-28T05:24:57;48.36;38.95;60.79;;
4048;Laerm;2038;51.728;6.674;2023-07-28T05:27:23;48.64;39.34;60.24;;
4048;Laerm;2038;51.728;6.674;2023-07-28T05:29:49;48.84;38.95;59.72;;
4048;Laerm;2038;51.728;6.674;2023-07-28T05:32:15;48.62;38.67;59.82;;
4048;Laerm;2038;51.728;6.674;2023-07-28T05:34:45;51.37;38.95;64.41;;
4048;Laerm;2038;51.728;6.674;2023-07-28T05:37:11;49.26;39.21;61.69;;
4048;Laerm;2038;51.728;6.674;2023-07-28T05:39:38;50.98;39.34;62.23;;
4048;Laerm;2038;51.728;6.674;2023-07-28T05:42:04;45.51;38.37;58.85;;
4048;Laerm;2038;51.728;6.674;2023-07-28T05:44:30;50.51;39.81;69.72;;
4048;Laerm;2038;51.728;6.674;2023-07-28T05:46:56;51.45;38.81;63.59;;
4048;Laerm;2038;51.728;6.674;2023-07-28T05:49:23;49.86;39.57;60.98;;
4048;Laerm;2038;51.728;6.674;2023-07-28T05:51:49;46.83;39.81;59.81;;
4048;Laerm;2038;51.728;6.674;2023-07-28T05:54:15;50.53;39.08;66.72;;
4048;Laerm;2038;51.728;6.674;2023-07-28T05:56:42;49.53;39.70;61.55;;
4048;Laerm;2038;51.728;6.674;2023-07-28T05:59:09;47.91;38.52;60.90;;
4048;Laerm;2038;51.728;6.674;2023-07-28T06:01:35;46.58;38.37;59.90;;
4048;Laerm;2038;51.728;6.674;2023-07-28T06:04:01;49.06;38.95;65.25;;
4048;Laerm;2038;51.728;6.674;2023-07-28T06:06:27;48.26;38.37;61.63;;
4048;Laerm;2038;51.728;6.674;2023-07-28T06:08:54;48.27;39.92;58.31;;
4048;Laerm;2038;51.728;6.674;2023-07-28T06:11:21;47.78;38.52;63.87;;
4048;Laerm;2038;51.728;6.674;2023-07-28T06:13:48;51.09;39.46;64.92;;
4048;Laerm;2038;51.728;6.674;2023-07-28T06:16:14;45.05;38.95;56.94;;
4048;Laerm;2038;51.728;6.674;2023-07-28T06:18:41;49.25;38.67;58.93;;
4048;Laerm;2038;51.728;6.674;2023-07-28T06:21:07;52.21;39.46;66.14;;
4048;Laerm;2038;51.728;6.674;2023-07-28T06:23:34;47.24;39.58;58.21;;
4048;Laerm;2038;51.728;6.674;2023-07-28T06:26:00;49.35;38.37;62.53;;
4048;Laerm;2038;51.728;6.674;2023-07-28T06:28:26;46.41;38.67;58.46;;
4048;Laerm;2038;51.728;6.674;2023-07-28T06:30:57;50.14;38.52;64.68;;
4048;Laerm;2038;51.728;6.674;2023-07-28T06:33:25;47.91;39.08;60.36;;
4048;Laerm;2038;51.728;6.674;2023-07-28T06:35:51;47.28;39.08;58.36;;
4048;Laerm;2038;51.728;6.674;2023-07-28T06:38:18;51.75;37.70;68.16;;
4048;Laerm;2038;51.728;6.674;2023-07-28T06:40:44;54.53;39.81;68.73;;
4048;Laerm;2038;51.728;6.674;2023-07-28T06:43:10;53.86;40.13;68.48;;
4048;Laerm;2038;51.728;6.674;2023-07-28T06:45:37;48.86;40.53;59.85;;
4048;Laerm;2038;51.728;6.674;2023-07-28T06:48:03;48.39;40.23;59.43;;
4048;Laerm;2038;51.728;6.674;2023-07-28T06:50:30;48.80;40.23;64.75;;
4048;Laerm;2038;51.728;6.674;2023-07-28T06:52:56;49.34;39.58;59.68;;
4048;Laerm;2038;51.728;6.674;2023-07-28T06:55:23;51.43;39.46;64.95;;
4048;Laerm;2038;51.728;6.674;2023-07-28T06:57:49;51.32;40.33;62.00;;
4048;Laerm;2038;51.728;6.674;2023-07-28T07:00:16;47.43;38.81;58.03;;
4048;Laerm;2038;51.728;6.674;2023-07-28T07:02:44;45.96;38.81;60.45;;
4048;Laerm;2038;51.728;6.674;2023-07-28T07:05:10;51.69;40.23;64.44;;
4048;Laerm;2038;51.728;6.674;2023-07-28T07:07:38;49.18;38.95;65.71;;
4048;Laerm;2038;51.728;6.674;2023-07-28T07:10:06;45.51;38.67;57.57;;
4048;Laerm;2038;51.728;6.674;2023-07-28T07:12:32;47.49;39.21;58.84;;
4048;Laerm;2038;51.728;6.674;2023-07-28T07:14:58;44.25;38.52;57.74;;
4048;Laerm;2038;51.728;6.674;2023-07-28T07:17:25;49.02;39.46;65.52;;
4048;Laerm;2038;51.728;6.674;2023-07-28T07:19:51;43.60;38.95;57.74;;
4048;Laerm;2038;51.728;6.674;2023-07-28T07:22:17;49.93;39.92;58.74;;
4048;Laerm;2038;51.728;6.674;2023-07-28T07:24:44;48.24;39.81;61.70;;
4048;Laerm;2038;51.728;6.674;2023-07-28T07:27:10;50.21;40.43;64.56;;
4048;Laerm;2038;51.728;6.674;2023-07-28T07:29:40;46.86;39.34;59.11;;
4048;Laerm;2038;51.728;6.674;2023-07-28T07:32:07;50.43;39.70;67.92;;
4048;Laerm;2038;51.728;6.674;2023-07-28T07:34:34;47.64;39.34;59.24;;
4048;Laerm;2038;51.728;6.674;2023-07-28T07:37:03;48.43;39.21;61.61;;
4048;Laerm;2038;51.728;6.674;2023-07-28T07:39:29;49.25;39.70;61.52;;
4048;Laerm;2038;51.728;6.674;2023-07-28T07:41:55;50.74;39.81;62.90;;
4048;Laerm;2038;51.728;6.674;2023-07-28T07:44:21;48.03;38.52;58.99;;
4048;Laerm;2038;51.728;6.674;2023-07-28T07:46:49;47.74;38.52;59.29;;
4048;Laerm;2038;51.728;6.674;2023-07-28T07:49:15;56.10;40.13;71.72;;
4048;Laerm;2038;51.728;6.674;2023-07-28T07:51:41;51.10;39.58;63.78;;
4048;Laerm;2038;51.728;6.674;2023-07-28T07:54:08;51.01;39.46;65.66;;
4048;Laerm;2038;51.728;6.674;2023-07-28T07:56:34;47.22;38.81;61.34;;
4048;Laerm;2038;51.728;6.674;2023-07-28T07:59:00;50.99;39.21;64.08;;
4048;Laerm;2038;51.728;6.674;2023-07-28T08:01:26;49.83;39.70;62.75;;
4048;Laerm;2038;51.728;6.674;2023-07-28T08:03:53;50.16;38.52;62.92;;
4048;Laerm;2038;51.728;6.674;2023-07-28T08:06:19;53.32;38.81;68.36;;
4048;Laerm;2038;51.728;6.674;2023-07-28T08:08:45;52.77;40.36;66.48;;
4048;Laerm;2038;51.728;6.674;2023-07-28T08:11:12;51.44;39.99;66.39;;
4048;Laerm;2038;51.728;6.674;2023-07-28T08:13:38;50.53;40.03;59.60;;
4048;Laerm;2038;51.728;6.674;2023-07-28T08:16:04;47.40;38.52;59.17;;
4048;Laerm;2038;51.728;6.674;2023-07-28T08:18:31;49.71;38.67;66.38;;
4048;Laerm;2038;51.728;6.674;2023-07-28T08:20:57;50.46;38.95;62.23;;
4048;Laerm;2038;51.728;6.674;2023-07-28T08:23:23;48.80;38.67;60.85;;
4048;Laerm;2038;51.728;6.674;2023-07-28T08:25:49;52.11;38.52;70.16;;
4048;Laerm;2038;51.728;6.674;2023-07-28T08:28:16;50.00;39.21;67.43;;
4048;Laerm;2038;51.728;6.674;2023-07-28T08:30:42;48.77;39.34;62.86;;
4048;Laerm;2038;51.728;6.674;2023-07-28T08:33:08;50.44;39.46;63.49;;
4048;Laerm;2038;51.728;6.674;2023-07-28T08:35:34;47.29;38.21;61.37;;
4048;Laerm;2038;51.728;6.674;2023-07-28T08:38:01;50.92;38.67;65.80;;
4048;Laerm;2038;51.728;6.674;2023-07-28T08:40:27;51.61;39.08;65.98;;
4048;Laerm;2038;51.728;6.674;2023-07-28T08:42:54;50.51;38.52;62.83;;
4048;Laerm;2038;51.728;6.674;2023-07-28T08:45:20;48.12;39.21;61.78;;
4048;Laerm;2038;51.728;6.674;2023-07-28T08:47:46;52.51;39.58;65.88;;
4048;Laerm;2038;51.728;6.674;2023-07-28T08:50:13;49.37;38.95;62.93;;
4048;Laerm;2038;51.728;6.674;2023-07-28T08:52:39;49.75;38.05;62.20;;
4048;Laerm;2038;51.728;6.674;2023-07-28T08:55:06;49.53;39.58;59.67;;
4048;Laerm;2038;51.728;6.674;2023-07-28T08:57:32;49.89;38.21;62.64;;
4048;Laerm;2038;51.728;6.674;2023-07-28T08:59:58;52.39;40.53;70.27;;
4048;Laerm;2038;51.728;6.674;2023-07-28T09:02:25;49.48;39.21;60.45;;
4048;Laerm;2038;51.728;6.674;2023-07-28T09:04:51;52.62;38.95;67.33;;
4048;Laerm;2038;51.728;6.674;2023-07-28T09:07:17;51.72;38.37;66.56;;
4048;Laerm;2038;51.728;6.674;2023-07-28T09:09:43;47.86;38.81;61.31;;
4048;Laerm;2038;51.728;6.674;2023-07-28T09:12:10;52.99;39.81;67.36;;
4048;Laerm;2038;51.728;6.674;2023-07-28T09:14:38;48.74;38.37;59.81;;
4048;Laerm;2038;51.728;6.674;2023-07-28T09:17:10;52.42;39.92;64.40;;
4048;Laerm;2038;51.728;6.674;2023-07-28T09:19:56;52.14;40.33;64.97;;
4048;Laerm;2038;51.728;6.674;2023-07-28T09:22:23;52.68;39.46;70.65;;
4048;Laerm;2038;51.728;6.674;2023-07-28T09:24:50;50.14;39.81;61.95;;
4048;Laerm;2038;51.728;6.674;2023-07-28T09:27:24;47.27;38.95;57.96;;
4048;Laerm;2038;51.728;6.674;2023-07-28T09:29:53;50.34;39.81;62.84;;
4048;Laerm;2038;51.728;6.674;2023-07-28T09:32:29;48.83;38.37;61.66;;
4048;Laerm;2038;51.728;6.674;2023-07-28T09:35:09;48.88;38.81;64.14;;
4048;Laerm;2038;51.728;6.674;2023-07-28T09:37:40;51.82;38.95;64.79;;
4048;Laerm;2038;51.728;6.674;2023-07-28T09:40:20;51.39;38.67;63.38;;
4048;Laerm;2038;51.728;6.674;2023-07-28T09:42:49;52.76;37.52;68.23;;
4048;Laerm;2038;51.728;6.674;2023-07-28T09:45:18;52.87;39.81;66.69;;
4048;Laerm;2038;51.728;6.674;2023-07-28T09:47:50;53.46;38.37;65.32;;
4048;Laerm;2038;51.728;6.674;2023-07-28T09:50:26;52.51;38.95;61.31;;
4048;Laerm;2038;51.728;6.674;2023-07-28T09:52:58;54.45;39.21;65.00;;
4048;Laerm;2038;51.728;6.674;2023-07-28T09:55:28;53.66;39.34;67.36;;
4048;Laerm;2038;51.728;6.674;2023-07-28T09:57:57;56.47;40.23;68.57;;
4048;Laerm;2038;51.728;6.674;2023-07-28T10:00:26;51.63;37.70;64.38;;
4048;Laerm;2038;51.728;6.674;2023-07-28T10:02:53;54.51;39.57;66.37;;
4048;Laerm;2038;51.728;6.674;2023-07-28T10:05:20;51.59;39.46;61.68;;
4048;Laerm;2038;51.728;6.674;2023-07-28T10:07:48;55.91;41.61;70.01;;
4048;Laerm;2038;51.728;6.674;2023-07-28T10:10:15;54.03;40.80;62.84;;
4048;Laerm;2038;51.728;6.674;2023-07-28T10:12:48;51.98;38.81;64.06;;
4048;Laerm;2038;51.728;6.674;2023-07-28T10:15:20;53.30;42.09;62.92;;
4048;Laerm;2038;51.728;6.674;2023-07-28T10:17:50;50.72;39.46;64.98;;
4048;Laerm;2038;51.728;6.674;2023-07-28T10:20:37;54.85;39.70;66.40;;
4048;Laerm;2038;51.728;6.674;2023-07-28T10:23:21;53.12;39.70;64.09;;
4048;Laerm;2038;51.728;6.674;2023-07-28T10:25:57;51.81;38.67;60.56;;
4048;Laerm;2038;51.728;6.674;2023-07-28T10:30:58;50.11;38.67;60.73;;
4048;Laerm;2038;51.728;6.674;2023-07-28T10:33:40;57.18;43.99;69.48;;
4048;Laerm;2038;51.728;6.674;2023-07-28T10:41:36;48.39;37.70;60.00;;
4048;Laerm;2038;51.728;6.674;2023-07-28T10:44:03;53.14;39.70;72.66;;
4048;Laerm;2038;51.728;6.674;2023-07-28T10:46:29;48.35;39.21;61.19;;
4048;Laerm;2038;51.728;6.674;2023-07-28T10:49:04;54.74;41.53;67.11;;
4048;Laerm;2038;51.728;6.674;2023-07-28T10:51:31;55.37;42.22;68.03;;
4048;Laerm;2038;51.728;6.674;2023-07-28T10:54:00;56.00;41.38;70.27;;
4048;Laerm;2038;51.728;6.674;2023-07-28T10:56:30;52.89;40.98;61.80;;
4048;Laerm;2038;51.728;6.674;2023-07-28T10:59:03;50.87;38.21;61.98;;
4048;Laerm;2038;51.728;6.674;2023-07-28T11:01:35;51.04;38.81;60.66;;
4048;Laerm;2038;51.728;6.674;2023-07-28T11:04:10;56.57;38.60;73.38;;
4048;Laerm;2038;51.728;6.674;2023-07-28T11:06:41;53.12;38.81;63.03;;
4048;Laerm;2038;51.728;6.674;2023-07-28T11:09:09;51.45;38.05;61.89;;
4048;Laerm;2038;51.728;6.674;2023-07-28T11:11:40;56.42;39.08;73.03;;
4048;Laerm;2038;51.728;6.674;2023-07-28T11:14:08;51.89;38.95;62.16;;
4048;Laerm;2038;51.728;6.674;2023-07-28T11:16:40;52.24;40.13;61.71;;
4048;Laerm;2038;51.728;6.674;2023-07-28T11:19:12;51.54;38.67;61.10;;
4048;Laerm;2038;51.728;6.674;2023-07-28T11:21:44;53.40;40.23;67.53;;
4048;Laerm;2038;51.728;6.674;2023-07-28T11:24:20;50.81;37.52;62.56;;
4048;Laerm;2038;51.728;6.674;2023-07-28T11:26:47;52.65;38.81;64.58;;
4048;Laerm;2038;51.728;6.674;2023-07-28T11:29:13;55.32;40.53;68.62;;
4048;Laerm;2038;51.728;6.674;2023-07-28T11:31:41;55.26;40.03;72.77;;
4048;Laerm;2038;51.728;6.674;2023-07-28T11:34:16;53.60;39.58;66.72;;
4048;Laerm;2038;51.728;6.674;2023-07-28T11:36:42;50.04;38.05;60.32;;
4048;Laerm;2038;51.728;6.674;2023-07-28T11:39:09;53.64;39.46;64.25;;
4048;Laerm;2038;51.728;6.674;2023-07-28T11:41:38;55.39;40.33;65.53;;
4048;Laerm;2038;51.728;6.674;2023-07-28T11:44:06;52.76;39.21;65.80;;
4048;Laerm;2038;51.728;6.674;2023-07-28T11:46:39;54.04;38.32;64.95;;
4048;Laerm;2038;51.728;6.674;2023-07-28T11:49:19;55.48;40.43;66.87;;
4048;Laerm;2038;51.728;6.674;2023-07-28T11:51:50;49.63;37.32;60.24;;
4048;Laerm;2038;51.728;6.674;2023-07-28T11:54:21;53.68;40.45;64.32;;
4048;Laerm;2038;51.728;6.674;2023-07-28T11:56:51;55.39;39.58;70.63;;
4048;Laerm;2038;51.728;6.674;2023-07-28T11:59:19;56.59;39.92;71.01;;
4048;Laerm;2038;51.728;6.674;2023-07-28T12:02:03;53.75;38.52;66.19;;
4048;Laerm;2038;51.728;6.674;2023-07-28T12:04:38;57.70;39.08;71.16;;
4048;Laerm;2038;51.728;6.674;2023-07-28T12:12:25;55.90;42.59;65.24;;
4048;Laerm;2038;51.728;6.674;2023-07-28T12:14:53;53.54;40.71;65.94;;
4048;Laerm;2038;51.728;6.674;2023-07-28T12:17:22;50.23;37.88;62.51;;
4048;Laerm;2038;51.728;6.674;2023-07-28T12:20:06;54.38;40.53;68.66;;
4048;Laerm;2038;51.728;6.674;2023-07-28T12:22:42;57.34;40.43;74.62;;
4048;Laerm;2038;51.728;6.674;2023-07-28T12:25:10;55.00;39.58;64.72;;
4048;Laerm;2038;51.728;6.674;2023-07-28T12:27:37;51.15;37.88;61.51;;
4048;Laerm;2038;51.728;6.674;2023-07-28T12:30:04;54.31;39.58;67.13;;
4048;Laerm;2038;51.728;6.674;2023-07-28T12:32:31;51.97;39.08;63.28;;
4048;Laerm;2038;51.728;6.674;2023-07-28T12:34:57;55.15;40.23;64.15;;
4048;Laerm;2038;51.728;6.674;2023-07-28T12:37:23;53.95;39.58;62.38;;
4048;Laerm;2038;51.728;6.674;2023-07-28T12:39:49;54.19;40.80;66.35;;
4048;Laerm;2038;51.728;6.674;2023-07-28T12:42:16;52.50;39.34;62.15;;
4048;Laerm;2038;51.728;6.674;2023-07-28T12:44:42;54.20;40.03;67.57;;
4048;Laerm;2038;51.728;6.674;2023-07-28T12:47:09;51.84;38.81;63.66;;
4048;Laerm;2038;51.728;6.674;2023-07-28T12:49:35;56.67;40.53;72.07;;
4048;Laerm;2038;51.728;6.674;2023-07-28T12:52:05;53.93;40.89;64.44;;
4048;Laerm;2038;51.728;6.674;2023-07-28T12:54:35;54.49;39.58;70.81;;
4048;Laerm;2038;51.728;6.674;2023-07-28T12:57:01;51.81;38.52;62.20;;
4048;Laerm;2038;51.728;6.674;2023-07-28T12:59:28;53.01;40.23;66.15;;
4048;Laerm;2038;51.728;6.674;2023-07-28T13:01:56;52.94;39.70;64.20;;
4048;Laerm;2038;51.728;6.674;2023-07-28T13:04:23;51.26;41.06;60.18;;
4048;Laerm;2038;51.728;6.674;2023-07-28T13:06:49;53.48;41.22;65.63;;
4048;Laerm;2038;51.728;6.674;2023-07-28T13:09:15;51.99;41.82;60.98;;
4048;Laerm;2038;51.728;6.674;2023-07-28T13:11:41;52.34;42.09;63.14;;
4048;Laerm;2038;51.728;6.674;2023-07-28T13:14:08;51.88;42.41;63.74;;
4048;Laerm;2038;51.728;6.674;2023-07-28T13:16:34;55.34;43.81;69.71;;
4048;Laerm;2038;51.728;6.674;2023-07-28T13:19:02;50.29;42.53;61.10;;
4048;Laerm;2038;51.728;6.674;2023-07-28T13:21:28;49.53;42.16;59.63;;
4048;Laerm;2038;51.728;6.674;2023-07-28T13:23:54;53.91;42.82;66.23;;
4048;Laerm;2038;51.728;6.674;2023-07-28T13:26:21;56.14;41.53;70.81;;
4048;Laerm;2038;51.728;6.674;2023-07-28T13:28:47;56.09;41.30;71.58;;
4048;Laerm;2038;51.728;6.674;2023-07-28T13:31:16;49.25;40.98;60.46;;
4048;Laerm;2038;51.728;6.674;2023-07-28T13:33:43;50.97;43.04;60.72;;
4048;Laerm;2038;51.728;6.674;2023-07-28T13:36:11;57.96;42.53;75.51;;
4048;Laerm;2038;51.728;6.674;2023-07-28T13:38:37;51.04;42.93;62.82;;
4048;Laerm;2038;51.728;6.674;2023-07-28T13:41:06;51.92;42.59;63.91;;
4048;Laerm;2038;51.728;6.674;2023-07-28T13:43:35;51.23;43.72;59.29;;
4048;Laerm;2038;51.728;6.674;2023-07-28T13:46:04;50.77;43.49;60.27;;
4048;Laerm;2038;51.728;6.674;2023-07-28T13:48:33;53.41;43.29;63.44;;
4048;Laerm;2038;51.728;6.674;2023-07-28T13:51:02;52.61;43.86;67.04;;
4048;Laerm;2038;51.728;6.674;2023-07-28T13:53:28;52.79;44.15;64.35;;
4048;Laerm;2038;51.728;6.674;2023-07-28T13:55:56;51.34;42.53;62.78;;
4048;Laerm;2038;51.728;6.674;2023-07-28T13:58:22;50.98;42.03;62.86;;
4048;Laerm;2038;51.728;6.674;2023-07-28T14:00:49;50.99;41.94;62.99;;
4048;Laerm;2038;51.728;6.674;2023-07-28T14:03:15;49.11;38.05;62.50;;
4048;Laerm;2038;51.728;6.674;2023-07-28T14:05:42;55.69;38.21;72.16;;
4048;Laerm;2038;51.728;6.674;2023-07-28T14:08:08;50.97;39.46;61.79;;
4048;Laerm;2038;51.728;6.674;2023-07-28T14:10:36;58.84;40.03;76.15;;
4048;Laerm;2038;51.728;6.674;2023-07-28T14:13:04;51.89;39.81;63.97;;
4048;Laerm;2038;51.728;6.674;2023-07-28T14:15:30;52.79;40.23;68.29;;
4048;Laerm;2038;51.728;6.674;2023-07-28T14:17:56;51.90;40.13;63.53;;
4048;Laerm;2038;51.728;6.674;2023-07-28T14:20:23;52.14;38.37;66.63;;
4048;Laerm;2038;51.728;6.674;2023-07-28T14:22:49;50.72;39.92;61.04;;
4048;Laerm;2038;51.728;6.674;2023-07-28T14:25:15;49.77;39.21;61.95;;
4048;Laerm;2038;51.728;6.674;2023-07-28T14:27:41;51.08;39.21;64.07;;